Latest Coastal Weather Observations for Frankston

IDV60701

Issued at 5:32 pm EDT Monday 27 March 2017 (issued every 10 minutes, with the page automatically refreshed every 10 minutes)

About coastal observations | Map of coastal stations | Coastal observations for VIC | Marine services | Other Formats
Station Details ID: 086371 Name: FRANKSTON AWS Lat: -38.15 Lon: 145.12 Height: 6.0 m
Data from the previous 72 hours. | See also: Recent months at Frankston
Date/Time
EDT
Temp
°C
Wind Pressure Rain since
9am
mm
Weather Cloud Vis
km
Sea
Height
m
Swell
Dir  Spd
kts
Gust
kts
hPa Trend Height
m
Period
s
Dir
27/05:30pm 18.3 WNW 14 16 - - - - - - - - - -
27/05:00pm 18.1 WNW 15 19 - - - - - - - - - -
27/04:30pm 17.1 W 19 23 - - - - - - - - - -
27/04:08pm 17.0 W 27 37 - - - - - - - - - -
27/04:00pm 17.6 W 28 36 - - - - - - - - - -
27/03:51pm 18.4 W 23 36 - - - - - - - - - -
27/03:30pm 17.6 W 19 24 - - - - - - - - - -
27/03:00pm 19.0 WSW 21 32 - - - - - - - - - -
27/02:51pm 19.7 WSW 21 32 - - - - - - - - - -
27/02:30pm 20.5 WSW 19 25 - - - - - - - - - -
27/02:00pm 20.2 SW 20 31 - - - - - - - - - -
27/01:30pm 22.3 SW 28 40 - - - - - - - - - -
27/01:27pm 22.8 W 27 40 - - - - - - - - - -
27/01:22pm 24.3 NW 19 35 - - - - - - - - - -
27/01:20pm 26.6 NNW 16 30 - - - - - - - - - -
27/01:00pm 27.6 NNW 18 23 - - - - - - - - - -
27/12:37pm 26.9 NNW 18 25 - - - - - - - - - -
27/12:30pm 28.4 N 20 31 - - - - - - - - - -
27/12:22pm 29.7 N 18 31 - - - - - - - - - -
27/12:00pm 29.1 N 20 29 - - - - - - - - - -
27/11:30am 27.7 N 21 28 - - - - - - - - - -
27/11:00am 28.4 NNE 23 32 - - - - - - - - - -
27/10:54am 28.7 NNE 20 31 - - - - - - - - - -
27/10:30am 27.4 NNE 22 31 - - - - - - - - - -
27/10:01am 28.0 NNE 19 31 - - - - - - - - - -
27/10:00am 28.1 NNE 18 25 - - - - - - - - - -
27/09:30am 27.2 NNE 13 21 - - - - - - - - - -
27/09:00am 27.1 NNE 12 19 - - - - - - - - - -
27/08:30am 26.7 NNE 14 21 - - - - - - - - - -
27/08:00am 25.7 NNE 12 17 - - - - - - - - - -
27/07:30am 25.9 NE 9 16 - - - - - - - - - -
27/07:00am 25.6 NE 8 13 - - - - - - - - - -
27/06:30am 25.4 NE 6 11 - - - - - - - - - -
27/06:00am 25.0 NE 7 10 - - - - - - - - - -
27/05:30am 24.9 NNE 6 9 - - - - - - - - - -
27/05:00am 23.9 NE 3 4 - - - - - - - - - -
27/04:30am 23.4 NE 5 8 - - - - - - - - - -
27/04:00am 23.0 ENE 4 7 - - - - - - - - - -
27/03:30am 22.4 E 3 6 - - - - - - - - - -
27/03:00am 22.0 E 4 5 - - - - - - - - - -
27/02:30am 21.3 E 4 6 - - - - - - - - - -
27/02:00am 20.3 E 4 6 - - - - - - - - - -
27/01:30am 20.0 ESE 3 4 - - - - - - - - - -
27/01:00am 19.9 ESE 4 6 - - - - - - - - - -
27/12:30am 19.9 ESE 3 5 - - - - - - - - - -
27/12:00am 19.3 ESE 4 6 - - - - - - - - - -
 
Date/Time
EDT
Temp
°C
Wind Pressure Rain since
9am
mm
Weather Cloud Vis
km
Sea
Height
m
Swell
Dir  Spd
kts
Gust
kts
hPa Trend Height
m
Period
s
Dir
26/11:30pm 19.1 E 3 4 - - - - - - - - - -
26/11:00pm 19.9 E 3 6 - - - - - - - - - -
26/10:30pm 19.7 ESE 6 9 - - - - - - - - - -
26/10:00pm 19.6 ESE 4 9 - - - - - - - - - -
26/09:30pm 19.6 ESE 2 4 - - - - - - - - - -
26/09:00pm 19.8 ENE 2 5 - - - - - - - - - -
26/08:30pm 19.9 SSE 6 10 - - - - - - - - - -
26/08:00pm 20.3 SE 7 13 - - - - - - - - - -
26/07:30pm 20.9 SSE 5 10 - - - - - - - - - -
26/07:00pm 21.7 SSE 6 12 - - - - - - - - - -
26/06:30pm 23.0 SSE 5 9 - - - - - - - - - -
26/06:00pm 23.9 SE 5 9 - - - - - - - - - -
26/05:30pm 25.0 SE 4 7 - - - - - - - - - -
26/05:00pm 24.6 SE 5 10 - - - - - - - - - -
26/04:30pm 24.5 ESE 5 9 - - - - - - - - - -
26/04:00pm 24.6 SSW 5 10 - - - - - - - - - -
26/03:30pm 21.3 WSW 8 10 - - - - - - - - - -
26/03:00pm 20.9 WSW 9 10 - - - - - - - - - -
26/02:30pm 20.7 WSW 8 9 - - - - - - - - - -
26/02:00pm 20.6 W 7 8 - - - - - - - - - -
26/01:30pm 20.4 WSW 6 7 - - - - - - - - - -
26/01:00pm 20.4 W 5 7 - - - - - - - - - -
26/12:30pm 20.7 NW 3 5 - - - - - - - - - -
26/12:00pm 21.3 ESE 2 3 - - - - - - - - - -
26/11:30am 21.4 SSE 1 5 - - - - - - - - - -
26/11:00am 20.9 ESE 4 7 - - - - - - - - - -
26/10:30am 20.8 SSE 3 5 - - - - - - - - - -
26/10:00am 20.2 SSE 5 8 - - - - - - - - - -
26/09:30am 19.7 SSE 4 8 - - - - - - - - - -
26/09:00am 19.6 SE 2 5 - - - - - - - - - -
26/08:30am 18.9 SSE 2 3 - - - - - - - - - -
26/08:00am 18.8 CALM 0 1 - - - - - - - - - -
26/07:30am 18.9 CALM 0 0 - - - - - - - - - -
26/07:00am 19.0 CALM 0 0 - - - - - - - - - -
26/06:30am 19.0 CALM 0 0 - - - - - - - - - -
26/06:00am 19.0 SSE 1 2 - - - - - - - - - -
26/05:30am 19.0 CALM 0 0 - - - - - - - - - -
26/05:00am 19.0 CALM 0 0 - - - - - - - - - -
26/04:30am 18.9 CALM 0 0 - - - - - - - - - -
26/04:00am 18.8 SE 1 2 - - - - - - - - - -
26/03:30am 18.8 S 2 4 - - - - - - - - - -
26/03:00am 19.0 SW 4 5 - - - - - - - - - -
26/02:30am 19.2 SW 5 6 - - - - - - - - - -
26/02:00am 19.3 SW 5 7 - - - - - - - - - -
26/01:30am 19.4 SW 5 7 - - - - - - - - - -
26/01:00am 19.3 SW 5 7 - - - - - - - - - -
26/12:30am 19.3 SW 5 8 - - - - - - - - - -
26/12:00am 19.9 SW 1 4 - - - - - - - - - -
 
Date/Time
EDT
Temp
°C
Wind Pressure Rain since
9am
mm
Weather Cloud Vis
km
Sea
Height
m
Swell
Dir  Spd
kts
Gust
kts
hPa Trend Height
m
Period
s
Dir
25/11:30pm 20.1 SW 2 3 - - - - - - - - - -
25/11:00pm 20.4 SSW 2 4 - - - - - - - - - -
25/10:30pm 21.1 SSE 1 2 - - - - - - - - - -
25/10:00pm 21.6 S 2 3 - - - - - - - - - -
25/09:30pm 21.9 WSW 6 8 - - - - - - - - - -
25/09:00pm 23.1 S 3 5 - - - - - - - - - -
25/08:30pm 23.4 SW 6 8 - - - - - - - - - -
25/08:00pm 23.8 SSE 4 7 - - - - - - - - - -
25/07:30pm 24.4 SSE 5 10 - - - - - - - - - -
25/07:00pm 25.3 SSE 5 9 - - - - - - - - - -
25/06:30pm 26.2 SSE 6 9 - - - - - - - - - -
25/06:00pm 27.2 SE 4 8 - - - - - - - - - -
25/05:30pm 27.9 CALM 0 0 - - - - - - - - - -
25/05:00pm 27.9 CALM 0 0 - - - - - - - - - -
25/04:30pm 27.6 CALM 0 0 - - - - - - - - - -
25/04:00pm 28.4 CALM 0 0 - - - - - - - - - -
25/03:30pm 27.9 N 1 2 - - - - - - - - - -
25/03:00pm 27.0 N 3 4 - - - - - - - - - -
25/02:30pm 25.9 N 6 7 - - - - - - - - - -
25/02:00pm 25.1 CALM 0 2 - - - - - - - - - -
25/01:30pm 24.6 CALM 0 0 - - - - - - - - - -
25/01:00pm 24.1 CALM 0 0 - - - - - - - - - -
25/12:30pm 23.7 CALM 0 0 - - - - - - - - - -
25/12:00pm 23.0 N 6 8 - - - - - - - - - -
25/11:30am 22.6 NNW 6 7 - - - - - - - - - -
25/11:00am 22.1 N 5 6 - - - - - - - - - -
25/10:30am 21.8 N 4 5 - - - - - - - - - -
25/10:00am 21.3 NNE 1 3 - - - - - - - - - -
25/09:30am 21.1 CALM 0 0 - - - - - - - - - -
25/09:00am 20.9 NNE 1 2 - - - - - - - - - -
25/08:30am 20.5 CALM 0 1 - - - - - - - - - -
25/08:00am 20.1 E 2 2 - - - - - - - - - -
25/07:30am 20.2 ESE 1 2 - - - - - - - - - -
25/07:00am 19.3 SE 1 1 - - - - - - - - - -
25/06:30am 18.6 SSE 1 3 - - - - - - - - - -
25/06:00am 18.5 SE 2 3 - - - - - - - - - -
25/05:30am 18.6 SE 2 3 - - - - - - - - - -
25/05:00am 18.3 SE 3 5 - - - - - - - - - -
25/04:30am 17.7 ESE 4 5 - - - - - - - - - -
25/04:00am 17.4 E 5 7 - - - - - - - - - -
25/03:30am 17.2 E 5 7 - - - - - - - - - -
25/03:00am 17.2 E 5 7 - - - - - - - - - -
25/02:30am 17.3 ESE 5 7 - - - - - - - - - -
25/02:00am 17.3 SE 4 6 - - - - - - - - - -
25/01:30am 17.3 SE 5 6 - - - - - - - - - -
25/01:00am 17.4 ESE 6 8 - - - - - - - - - -
25/12:30am 17.5 ESE 6 9 - - - - - - - - - -
25/12:00am 17.6 ESE 7 10 - - - - - - - - - -
 
Date/Time
EDT
Temp
°C
Wind Pressure Rain since
9am
mm
Weather Cloud Vis
km
Sea
Height
m
Swell
Dir  Spd
kts
Gust
kts
hPa Trend Height
m
Period
s
Dir
24/11:30pm 17.9 ESE 7 10 - - - - - - - - - -
24/11:00pm 18.0 ESE 6 9 - - - - - - - - - -
24/10:30pm 18.2 ESE 6 11 - - - - - - - - - -
24/10:00pm 18.5 ESE 7 12 - - - - - - - - - -
24/09:30pm 18.9 ESE 6 11 - - - - - - - - - -
24/09:00pm 19.2 ESE 5 9 - - - - - - - - - -
24/08:30pm 19.5 ESE 6 13 - - - - - - - - - -
24/08:00pm 19.8 ESE 7 12 - - - - - - - - - -
24/07:30pm 20.3 ESE 8 17 - - - - - - - - - -
24/07:00pm 20.9 ESE 8 14 - - - - - - - - - -
24/06:30pm 21.7 ESE 7 12 - - - - - - - - - -
24/06:00pm 22.7 ESE 7 11 - - - - - - - - - -

Other Formats:

Comma delimited format used in spreadsheet applications
http://www.bom.gov.au/fwo/IDV60701/IDV60701.94871.axf

JavaScript Object Notation format (JSON) in row-major order
http://www.bom.gov.au/fwo/IDV60701/IDV60701.94871.json